createdAt,value
2022-11-16T00:01:06.404Z,99.90
2022-11-16T00:03:33.277Z,99.90
2022-11-16T00:06:00.953Z,99.90
2022-11-16T00:08:32.988Z,99.90
2022-11-16T00:11:06.020Z,99.90
2022-11-16T00:13:33.562Z,99.90
2022-11-16T00:16:00.169Z,99.90
2022-11-16T00:18:26.808Z,99.90
2022-11-16T00:20:53.603Z,99.90
2022-11-16T00:23:20.240Z,99.90
2022-11-16T00:25:46.826Z,99.90
2022-11-16T00:28:13.724Z,99.90
2022-11-16T00:30:40.386Z,99.90
2022-11-16T00:33:07.608Z,99.90
2022-11-16T00:35:38.693Z,99.90
2022-11-16T00:38:05.518Z,99.90
2022-11-16T00:40:32.128Z,99.90
2022-11-16T00:42:58.734Z,99.90
2022-11-16T00:45:25.329Z,99.90
2022-11-16T00:47:55.229Z,99.90
2022-11-16T00:50:24.457Z,99.90
2022-11-16T00:52:51.041Z,99.90
2022-11-16T00:55:17.772Z,99.90
2022-11-16T00:57:44.450Z,99.90
2022-11-16T01:00:11.384Z,99.90
2022-11-16T01:02:38.086Z,99.90
2022-11-16T01:05:04.946Z,99.90
2022-11-16T01:07:31.658Z,99.90
2022-11-16T01:09:58.314Z,99.90
2022-11-16T01:12:24.889Z,99.90
2022-11-16T01:14:51.945Z,99.90
2022-11-16T01:17:18.526Z,99.90
2022-11-16T01:19:45.193Z,99.90
2022-11-16T01:22:11.793Z,99.90
2022-11-16T01:24:38.384Z,99.90
2022-11-16T01:27:04.975Z,99.90
2022-11-16T01:29:34.905Z,99.90
2022-11-16T01:32:01.991Z,99.90
2022-11-16T01:34:28.613Z,99.90
2022-11-16T01:37:00.906Z,99.90
2022-11-16T01:39:31.847Z,99.90
2022-11-16T01:42:00.912Z,99.90
2022-11-16T01:44:33.680Z,99.90
2022-11-16T01:47:12.294Z,99.90
2022-11-16T01:49:45.992Z,99.90
2022-11-16T01:52:16.131Z,99.90
2022-11-16T01:54:43.745Z,99.90
2022-11-16T01:57:13.761Z,99.90
2022-11-16T01:59:47.598Z,99.90
2022-11-16T02:02:17.547Z,99.90
2022-11-16T02:04:45.754Z,99.90
2022-11-16T02:07:29.824Z,99.90
2022-11-16T02:10:14.845Z,99.90
2022-11-16T02:12:53.239Z,99.90
2022-11-16T02:15:38.467Z,99.90
2022-11-16T02:18:22.735Z,99.90
2022-11-16T02:21:06.268Z,99.90
2022-11-16T02:23:42.150Z,99.90
2022-11-16T02:26:38.152Z,99.90
2022-11-16T02:29:04.743Z,99.90
2022-11-16T02:31:35.566Z,99.90
2022-11-16T02:34:04.021Z,99.90
2022-11-16T02:36:31.457Z,99.90
2022-11-16T02:39:01.496Z,99.90
2022-11-16T02:41:31.401Z,99.90
2022-11-16T02:44:02.909Z,99.90
2022-11-16T02:46:31.970Z,99.90
2022-11-16T02:49:01.976Z,99.90
2022-11-16T02:51:29.358Z,99.90
2022-11-16T02:53:57.591Z,99.90
2022-11-16T02:56:25.460Z,99.90
2022-11-16T02:58:52.849Z,99.90
2022-11-16T03:01:26.813Z,99.90
2022-11-16T03:03:59.234Z,99.90
2022-11-16T03:06:31.889Z,99.90
2022-11-16T03:09:01.870Z,99.90
2022-11-16T03:11:49.942Z,99.90
2022-11-16T03:14:18.776Z,99.90
2022-11-16T03:16:48.205Z,99.90
2022-11-16T03:19:17.363Z,99.90
2022-11-16T03:21:49.568Z,99.90
2022-11-16T03:24:16.545Z,99.90
2022-11-16T03:26:50.801Z,99.90
2022-11-16T03:29:23.542Z,99.90
2022-11-16T03:31:54.335Z,99.90
2022-11-16T03:34:24.586Z,99.90
2022-11-16T03:36:52.899Z,99.90
2022-11-16T03:39:29.542Z,99.90
2022-11-16T03:41:57.041Z,99.90
2022-11-16T03:44:23.918Z,99.90
2022-11-16T03:46:50.549Z,99.90
2022-11-16T03:49:20.230Z,99.90
2022-11-16T03:51:46.884Z,99.90
2022-11-16T03:54:13.528Z,99.90
2022-11-16T03:56:40.512Z,99.90
2022-11-16T03:59:08.233Z,99.90
2022-11-16T04:01:34.988Z,99.90
2022-11-16T04:04:02.562Z,99.90
2022-11-16T04:06:48.120Z,99.90
2022-11-16T04:09:23.867Z,99.90
2022-11-16T04:12:09.409Z,99.90
2022-11-16T04:14:56.246Z,99.90
2022-11-16T04:17:44.405Z,99.90
2022-11-16T04:20:32.209Z,99.90
2022-11-16T04:23:24.204Z,99.90
2022-11-16T04:25:52.064Z,99.90
2022-11-16T04:28:20.424Z,99.90
2022-11-16T04:31:11.273Z,99.90
2022-11-16T04:33:59.002Z,99.90
2022-11-16T04:36:45.036Z,99.90
2022-11-16T04:39:12.106Z,99.90
2022-11-16T04:41:57.987Z,99.90
2022-11-16T04:44:45.874Z,99.90
2022-11-16T04:47:12.522Z,99.90
2022-11-16T04:49:39.506Z,99.90
2022-11-16T04:52:07.120Z,99.90
2022-11-16T04:54:33.995Z,99.90
2022-11-16T04:57:02.282Z,99.90
2022-11-16T04:59:29.078Z,99.90
2022-11-16T05:02:10.947Z,99.90
2022-11-16T05:04:54.171Z,99.90
2022-11-16T05:07:22.407Z,99.90
2022-11-16T05:09:50.725Z,99.90
2022-11-16T05:12:17.356Z,99.90
2022-11-16T05:14:46.164Z,99.90
2022-11-16T05:17:14.449Z,99.90
2022-11-16T05:20:00.444Z,99.90
2022-11-16T05:22:30.638Z,99.90
2022-11-16T05:24:59.481Z,99.90
2022-11-16T05:27:26.824Z,99.90
2022-11-16T05:29:54.352Z,99.90
2022-11-16T05:32:24.188Z,99.90
2022-11-16T05:34:52.563Z,99.90
2022-11-16T05:37:21.032Z,99.90
2022-11-16T05:39:47.850Z,99.90
2022-11-16T05:42:15.667Z,99.90
2022-11-16T05:44:42.311Z,99.90
2022-11-16T05:47:09.770Z,99.90
2022-11-16T05:49:36.399Z,99.90
2022-11-16T05:52:03.749Z,99.90
2022-11-16T05:54:31.217Z,99.90
2022-11-16T05:56:57.945Z,99.90
2022-11-16T05:59:24.607Z,99.90
2022-11-16T06:01:54.554Z,99.90
2022-11-16T06:04:24.607Z,99.90
2022-11-16T06:06:53.163Z,99.90
2022-11-16T06:09:20.070Z,99.90
2022-11-16T06:11:48.849Z,99.90
2022-11-16T06:14:15.878Z,99.90
2022-11-16T06:16:43.152Z,99.90
2022-11-16T06:19:10.868Z,99.90
2022-11-16T06:21:37.904Z,99.90
2022-11-16T06:24:09.522Z,99.90
2022-11-16T06:26:36.885Z,99.90
2022-11-16T06:29:04.058Z,99.90
2022-11-16T06:31:31.396Z,99.90
2022-11-16T06:34:00.684Z,99.90
2022-11-16T06:36:28.906Z,99.90
2022-11-16T06:38:58.748Z,99.90
2022-11-16T06:41:26.660Z,99.90
2022-11-16T06:43:53.462Z,99.90
2022-11-16T06:46:24.995Z,99.90
2022-11-16T06:48:52.672Z,99.90
2022-11-16T06:51:19.544Z,99.90
2022-11-16T06:53:47.449Z,99.90
2022-11-16T06:56:15.339Z,99.90
2022-11-16T06:58:55.840Z,99.90
2022-11-16T07:01:24.095Z,99.90
2022-11-16T07:03:56.442Z,99.90
2022-11-16T07:06:23.106Z,99.90
2022-11-16T07:08:49.886Z,99.90
2022-11-16T07:11:23.496Z,99.90
2022-11-16T07:13:50.125Z,99.90
2022-11-16T07:16:17.230Z,99.90
2022-11-16T07:18:50.962Z,99.90
2022-11-16T07:21:18.107Z,99.90
2022-11-16T07:23:45.416Z,99.90
2022-11-16T07:26:16.616Z,99.90
2022-11-16T07:28:48.890Z,99.90
2022-11-16T07:31:19.539Z,99.90
2022-11-16T07:33:46.586Z,99.90
2022-11-16T07:36:31.565Z,99.90
2022-11-16T07:38:58.709Z,99.90
2022-11-16T07:41:25.421Z,99.90
2022-11-16T07:44:09.532Z,99.90
2022-11-16T07:46:48.452Z,99.90
2022-11-16T07:49:17.211Z,99.90
2022-11-16T07:51:51.990Z,99.90
2022-11-16T07:54:44.590Z,99.90
2022-11-16T07:57:11.350Z,99.90
2022-11-16T07:59:42.667Z,99.90
2022-11-16T08:02:10.795Z,99.90
2022-11-16T08:04:39.511Z,99.90
2022-11-16T08:07:08.553Z,99.90
2022-11-16T08:09:41.574Z,99.90
2022-11-16T08:12:11.878Z,99.90
2022-11-16T08:14:38.622Z,99.90
2022-11-16T08:17:05.725Z,99.90
2022-11-16T08:19:32.392Z,99.90
2022-11-16T08:22:00.577Z,99.90
2022-11-16T08:24:30.735Z,99.90
2022-11-16T08:26:58.672Z,99.90
2022-11-16T08:29:25.781Z,99.90
2022-11-16T08:31:53.788Z,99.90
2022-11-16T08:34:22.194Z,99.90
2022-11-16T08:36:52.149Z,99.90
2022-11-16T08:39:24.613Z,99.90
2022-11-16T08:41:51.398Z,99.90
2022-11-16T08:44:18.236Z,99.90
2022-11-16T08:46:49.708Z,99.90
2022-11-16T08:49:28.834Z,99.90
2022-11-16T08:51:56.088Z,99.90
2022-11-16T08:54:22.787Z,99.90
2022-11-16T08:56:49.537Z,99.90
2022-11-16T08:59:18.014Z,99.90
2022-11-16T09:01:50.181Z,99.90
2022-11-16T09:04:18.675Z,99.90
2022-11-16T09:06:45.340Z,99.90
2022-11-16T09:09:12.037Z,99.90
2022-11-16T09:11:38.699Z,99.90
2022-11-16T09:14:05.291Z,99.90
2022-11-16T09:16:31.904Z,99.90
2022-11-16T09:18:58.605Z,99.90
2022-11-16T09:21:29.157Z,99.90
2022-11-16T09:23:57.018Z,99.90
2022-11-16T09:26:23.892Z,99.90
2022-11-16T09:28:55.540Z,99.90
2022-11-16T09:31:23.891Z,99.90
2022-11-16T09:33:50.695Z,99.90
2022-11-16T09:36:17.580Z,99.90
2022-11-16T09:41:31.764Z,99.90
2022-11-16T09:44:03.802Z,99.90
2022-11-16T09:46:35.693Z,99.90
2022-11-16T09:49:03.506Z,99.90
2022-11-16T09:51:32.476Z,99.90
2022-11-16T09:54:03.565Z,99.90
2022-11-16T09:56:32.126Z,99.90
2022-11-16T09:59:07.770Z,99.90
2022-11-16T10:01:37.349Z,99.90
2022-11-16T10:04:07.726Z,99.90
2022-11-16T10:06:41.601Z,99.90
2022-11-16T10:09:10.989Z,99.90
2022-11-16T10:11:48.626Z,99.90
2022-11-16T10:14:33.949Z,99.90
2022-11-16T10:17:13.691Z,99.90
2022-11-16T10:19:59.355Z,99.90
2022-11-16T10:22:41.718Z,99.90
2022-11-16T10:25:22.047Z,99.90
2022-11-16T10:28:03.118Z,99.90
2022-11-16T10:30:33.077Z,99.90
2022-11-16T10:33:03.596Z,99.90
2022-11-16T10:35:32.101Z,99.90
2022-11-16T10:38:02.486Z,99.90
2022-11-16T10:40:36.674Z,99.90
2022-11-16T10:43:05.619Z,99.90
2022-11-16T10:45:38.273Z,99.90
2022-11-16T10:48:23.071Z,99.90
2022-11-16T10:50:51.648Z,99.90
2022-11-16T10:53:47.636Z,99.90
2022-11-16T10:56:20.159Z,99.90
2022-11-16T10:58:52.883Z,99.90
2022-11-16T11:01:31.787Z,99.90
2022-11-16T11:04:17.202Z,99.90
2022-11-16T11:06:44.736Z,99.60
2022-11-16T11:09:31.630Z,99.90
2022-11-16T11:12:33.243Z,99.90
2022-11-16T11:15:01.940Z,99.90
2022-11-16T11:17:29.866Z,99.80
2022-11-16T11:19:57.110Z,99.90
2022-11-16T11:28:28.516Z,99.50
2022-11-16T11:31:04.064Z,98.90
2022-11-16T11:33:36.311Z,99.00
2022-11-16T11:36:06.265Z,99.10
2022-11-16T11:38:33.554Z,98.70
2022-11-16T11:41:01.558Z,98.70
2022-11-16T11:43:29.152Z,97.50
2022-11-16T11:46:04.181Z,97.50
2022-11-16T11:48:39.514Z,97.90
2022-11-16T11:51:12.007Z,98.20
2022-11-16T11:53:58.000Z,98.00
2022-11-16T11:56:25.952Z,96.60
2022-11-16T11:58:52.728Z,96.00
2022-11-16T12:01:38.027Z,97.40
2022-11-16T12:04:04.582Z,95.90
2022-11-16T12:06:31.234Z,96.60
2022-11-16T12:09:04.682Z,96.00
2022-11-16T12:11:46.084Z,96.70
2022-11-16T12:14:18.510Z,96.50
2022-11-16T12:16:48.114Z,96.50
2022-11-16T12:19:40.761Z,96.40
2022-11-16T12:22:11.861Z,96.70
2022-11-16T12:24:50.117Z,97.10
2022-11-16T12:27:36.694Z,97.40
2022-11-16T12:30:03.326Z,97.10
2022-11-16T12:32:39.298Z,97.60
2022-11-16T12:35:09.407Z,97.70
2022-11-16T12:37:54.396Z,97.60
2022-11-16T12:40:36.502Z,97.70
2022-11-16T12:43:03.130Z,97.30
2022-11-16T12:45:44.771Z,97.40
2022-11-16T12:48:31.908Z,97.50
2022-11-16T12:51:01.505Z,96.50
2022-11-16T12:53:34.389Z,93.10
2022-11-16T12:56:01.162Z,94.90
2022-11-16T12:58:30.824Z,93.00
2022-11-16T13:01:03.631Z,88.00
2022-11-16T13:03:35.491Z,87.80
2022-11-16T13:06:04.558Z,83.90
2022-11-16T13:08:35.127Z,76.30
2022-11-16T13:11:21.996Z,66.20
2022-11-16T13:13:53.628Z,71.10
2022-11-16T13:16:21.397Z,70.80
2022-11-16T13:18:48.094Z,68.60
2022-11-16T13:21:33.947Z,69.40
2022-11-16T13:24:07.139Z,68.90
2022-11-16T13:26:38.701Z,73.60
2022-11-16T13:29:14.424Z,76.30
2022-11-16T13:31:55.521Z,77.50
2022-11-16T13:34:24.668Z,79.50
2022-11-16T13:36:51.528Z,78.20
2022-11-16T13:39:22.641Z,82.00
2022-11-16T13:42:06.144Z,74.00
2022-11-16T13:44:34.693Z,75.50
2022-11-16T13:47:05.827Z,75.10
2022-11-16T13:49:37.776Z,76.60
2022-11-16T13:52:23.359Z,78.10
2022-11-16T13:54:55.418Z,80.20
2022-11-16T13:57:33.623Z,82.80
2022-11-16T14:00:00.190Z,84.80
2022-11-16T14:02:32.235Z,85.20
2022-11-16T14:05:02.189Z,88.10
2022-11-16T14:07:29.142Z,88.40
2022-11-16T14:09:55.744Z,89.00
2022-11-16T14:12:37.684Z,89.80
2022-11-16T14:15:36.658Z,89.80
2022-11-16T14:18:23.258Z,90.10
2022-11-16T14:20:57.826Z,90.60
2022-11-16T14:23:24.525Z,90.70
2022-11-16T14:25:58.651Z,90.90
2022-11-16T14:28:44.146Z,91.40
2022-11-16T14:31:23.626Z,91.80
2022-11-16T14:33:54.788Z,91.80
2022-11-16T14:36:50.974Z,91.90
2022-11-16T14:39:29.382Z,92.40
2022-11-16T14:42:01.562Z,92.40
2022-11-16T14:44:30.433Z,92.70
2022-11-16T14:46:57.146Z,92.60
2022-11-16T14:49:25.912Z,92.80
2022-11-16T14:51:54.843Z,92.90
2022-11-16T14:54:25.778Z,92.80
2022-11-16T14:56:56.697Z,92.90
2022-11-16T14:59:23.726Z,92.90
2022-11-16T15:01:50.789Z,92.90
2022-11-16T15:04:17.885Z,92.80
2022-11-16T15:06:47.357Z,92.90
2022-11-16T15:09:16.857Z,92.90
2022-11-16T15:12:05.793Z,93.00
2022-11-16T15:14:34.381Z,93.10
2022-11-16T15:17:00.990Z,93.20
2022-11-16T15:19:30.498Z,93.30
2022-11-16T15:22:01.200Z,93.20
2022-11-16T15:24:31.041Z,93.30
2022-11-16T15:27:17.755Z,93.40
2022-11-16T15:29:44.693Z,93.50
2022-11-16T15:32:16.208Z,93.60
2022-11-16T15:34:43.006Z,93.70
2022-11-16T15:37:14.998Z,93.80
2022-11-16T15:39:42.594Z,93.90
2022-11-16T15:42:13.579Z,94.00
2022-11-16T15:44:40.912Z,94.10
2022-11-16T15:47:09.967Z,94.10
2022-11-16T15:49:38.126Z,94.20
2022-11-16T15:52:05.081Z,94.40
2022-11-16T15:54:51.214Z,94.50
2022-11-16T15:57:18.380Z,94.70
2022-11-16T15:59:49.196Z,94.70
2022-11-16T16:02:18.260Z,94.80
2022-11-16T16:04:44.914Z,94.90
2022-11-16T16:07:12.473Z,95.00
2022-11-16T16:09:40.681Z,95.20
2022-11-16T16:12:17.984Z,95.20
2022-11-16T16:14:44.891Z,95.40
2022-11-16T16:17:20.507Z,95.40
2022-11-16T16:19:52.608Z,95.60
2022-11-16T16:22:28.258Z,95.60
2022-11-16T16:24:54.998Z,95.60
2022-11-16T16:27:22.681Z,96.20
2022-11-16T16:29:53.358Z,95.90
2022-11-16T16:32:33.490Z,96.00
2022-11-16T16:35:04.510Z,96.20
2022-11-16T16:37:32.475Z,96.20
2022-11-16T16:39:59.610Z,96.20
2022-11-16T16:42:26.244Z,96.20
2022-11-16T16:44:53.219Z,96.30
2022-11-16T16:47:20.694Z,96.20
2022-11-16T16:49:47.913Z,96.30
2022-11-16T16:52:14.505Z,96.70
2022-11-16T16:54:41.138Z,96.60
2022-11-16T16:57:12.224Z,96.80
2022-11-16T16:59:39.130Z,96.60
2022-11-16T17:02:05.728Z,96.60
2022-11-16T17:04:32.603Z,96.60
2022-11-16T17:06:59.179Z,96.60
2022-11-16T17:09:25.810Z,97.10
2022-11-16T17:11:52.386Z,96.80
2022-11-16T17:14:21.373Z,96.90
2022-11-16T17:16:47.938Z,96.90
2022-11-16T17:19:14.532Z,96.90
2022-11-16T17:21:41.221Z,96.80
2022-11-16T17:24:07.893Z,96.80
2022-11-16T17:26:34.640Z,96.90
2022-11-16T17:29:01.384Z,96.90
2022-11-16T17:31:28.326Z,97.00
2022-11-16T17:33:55.263Z,97.00
2022-11-16T17:36:21.825Z,97.00
2022-11-16T17:38:48.429Z,97.00
2022-11-16T17:41:19.106Z,97.10
2022-11-16T17:43:46.547Z,97.10
2022-11-16T17:46:14.431Z,97.20
2022-11-16T17:48:42.301Z,97.20
2022-11-16T17:51:09.626Z,97.20
2022-11-16T17:53:36.850Z,97.20
2022-11-16T17:56:03.901Z,97.20
2022-11-16T17:58:30.871Z,97.20
2022-11-16T18:00:57.642Z,97.20
2022-11-16T18:03:24.574Z,97.40
2022-11-16T18:05:51.697Z,97.40
2022-11-16T18:08:18.406Z,97.40
2022-11-16T18:10:44.983Z,97.50
2022-11-16T18:13:11.594Z,97.60
2022-11-16T18:15:42.388Z,97.90
2022-11-16T18:18:09.487Z,97.60
2022-11-16T18:20:37.126Z,97.70
2022-11-16T18:23:04.312Z,97.70
2022-11-16T18:25:33.621Z,97.70
2022-11-16T18:28:00.208Z,97.70
2022-11-16T18:30:26.835Z,97.70
2022-11-16T18:32:53.471Z,97.80
2022-11-16T18:35:20.235Z,97.70
2022-11-16T18:37:46.827Z,97.70
2022-11-16T18:40:13.847Z,97.70
2022-11-16T18:42:41.582Z,97.70
2022-11-16T18:45:08.455Z,97.70
2022-11-16T18:47:35.038Z,97.70
2022-11-16T18:50:01.847Z,97.60
2022-11-16T18:52:28.578Z,97.60
2022-11-16T18:54:55.149Z,97.70
2022-11-16T18:57:21.735Z,97.60
2022-11-16T18:59:48.327Z,97.60
2022-11-16T19:02:14.964Z,97.60
2022-11-16T19:04:41.611Z,97.70
2022-11-16T19:07:08.247Z,97.70
2022-11-16T19:09:34.948Z,97.80
2022-11-16T19:12:01.510Z,97.80
2022-11-16T19:14:28.114Z,97.80
2022-11-16T19:16:57.242Z,97.80
2022-11-16T19:19:25.210Z,97.80
2022-11-16T19:21:52.036Z,97.90
2022-11-16T19:24:18.663Z,97.80
2022-11-16T19:26:45.347Z,97.90
2022-11-16T19:29:11.906Z,97.90
2022-11-16T19:31:38.534Z,97.90
2022-11-16T19:34:06.678Z,98.00
2022-11-16T19:36:34.136Z,97.90
2022-11-16T19:39:01.016Z,98.00
2022-11-16T19:41:28.233Z,98.10
2022-11-16T19:43:58.250Z,98.00
2022-11-16T19:46:25.665Z,98.20
2022-11-16T19:48:52.265Z,98.20
2022-11-16T19:51:20.351Z,98.20
2022-11-16T19:53:47.604Z,98.20
2022-11-16T19:56:15.061Z,98.20
2022-11-16T19:58:42.165Z,98.20
2022-11-16T20:01:11.933Z,98.30
2022-11-16T20:03:40.356Z,98.20
2022-11-16T20:06:08.176Z,98.20
2022-11-16T20:08:35.226Z,98.20
2022-11-16T20:11:01.991Z,98.30
2022-11-16T20:13:28.657Z,98.30
2022-11-16T20:15:55.296Z,98.40
2022-11-16T20:18:21.905Z,98.30
2022-11-16T20:20:48.550Z,98.40
2022-11-16T20:23:15.516Z,98.30
2022-11-16T20:25:42.123Z,98.30
2022-11-16T20:28:09.509Z,98.30
2022-11-16T20:30:36.111Z,98.30
2022-11-16T20:33:02.676Z,98.30
2022-11-16T20:35:29.248Z,98.30
2022-11-16T20:37:55.830Z,98.40
2022-11-16T20:40:22.415Z,98.40
2022-11-16T20:42:49.040Z,98.30
2022-11-16T20:45:15.607Z,98.40
2022-11-16T20:47:42.161Z,98.50
2022-11-16T20:50:09.087Z,98.40
2022-11-16T20:52:39.641Z,98.50
2022-11-16T20:55:09.601Z,98.40
2022-11-16T20:57:36.336Z,98.60
2022-11-16T21:00:04.947Z,98.50
2022-11-16T21:02:31.514Z,98.60
2022-11-16T21:05:00.354Z,98.60
2022-11-16T21:07:28.115Z,98.60
2022-11-16T21:10:13.536Z,98.60
2022-11-16T21:12:58.815Z,98.60
2022-11-16T21:15:25.387Z,98.70
2022-11-16T21:17:52.018Z,98.80
2022-11-16T21:20:27.465Z,98.60
2022-11-16T21:22:54.845Z,98.70
2022-11-16T21:25:21.434Z,98.70
2022-11-16T21:27:48.154Z,98.80
2022-11-16T21:30:14.825Z,98.90
2022-11-16T21:32:41.466Z,98.80
2022-11-16T21:35:08.229Z,98.80
2022-11-16T21:37:34.805Z,98.90
2022-11-16T21:40:01.401Z,98.80
2022-11-16T21:42:27.945Z,98.90
2022-11-16T21:44:54.512Z,98.90
2022-11-16T21:47:21.265Z,98.90
2022-11-16T21:50:16.843Z,98.90
2022-11-16T21:52:34.424Z,98.90
2022-11-16T21:55:01.001Z,99.00
2022-11-16T21:57:27.639Z,99.00
2022-11-16T21:59:54.277Z,99.10
2022-11-16T22:02:20.852Z,99.10
2022-11-16T22:05:06.326Z,99.20
2022-11-16T22:07:32.978Z,99.10
2022-11-16T22:10:00.930Z,99.30
2022-11-16T22:12:28.436Z,99.30
2022-11-16T22:14:55.500Z,99.30
2022-11-16T22:17:22.344Z,99.50
2022-11-16T22:19:48.989Z,99.50
2022-11-16T22:22:15.653Z,99.30
2022-11-16T22:24:42.330Z,99.50
2022-11-16T22:27:09.105Z,99.40
2022-11-16T22:29:35.730Z,99.50
2022-11-16T22:32:02.383Z,99.60
2022-11-16T22:34:29.071Z,99.60
2022-11-16T22:36:55.646Z,99.70
2022-11-16T22:39:22.208Z,99.70
2022-11-16T22:41:48.799Z,99.60
2022-11-16T22:44:15.363Z,99.60
2022-11-16T22:46:41.915Z,99.60
2022-11-16T22:49:08.475Z,99.80
2022-11-16T22:51:35.056Z,99.90
2022-11-16T22:54:02.651Z,99.90
2022-11-16T22:56:30.337Z,99.90
2022-11-16T22:58:57.291Z,99.90
2022-11-16T23:01:24.002Z,99.90
2022-11-16T23:03:50.696Z,99.90
2022-11-16T23:06:17.680Z,99.90
2022-11-16T23:08:44.308Z,99.90
2022-11-16T23:11:31.538Z,99.90
2022-11-16T23:14:17.071Z,99.90
2022-11-16T23:16:43.755Z,99.90
2022-11-16T23:19:30.233Z,99.90
2022-11-16T23:22:16.038Z,99.90
2022-11-16T23:25:01.726Z,99.90
2022-11-16T23:27:32.200Z,99.90
2022-11-16T23:30:00.829Z,99.90
2022-11-16T23:32:28.213Z,99.90
2022-11-16T23:34:54.828Z,99.90
2022-11-16T23:37:21.534Z,99.90
2022-11-16T23:39:48.117Z,99.90
2022-11-16T23:42:33.499Z,99.90
2022-11-16T23:45:00.148Z,99.90
2022-11-16T23:47:26.737Z,99.90
2022-11-16T23:49:53.306Z,99.90
2022-11-16T23:52:19.843Z,99.90
2022-11-16T23:54:46.455Z,99.90
2022-11-16T23:57:13.063Z,99.90
2022-11-16T23:59:39.620Z,99.90
